sensor_id;sensor_type;location;lat;lon;timestamp;temperature;humidity
6270;DHT22;3168;51.684;6.954;2023-03-01T00:00:28;-1.00;1.00
6270;DHT22;3168;51.684;6.954;2023-03-01T00:02:54;-1.00;1.00
6270;DHT22;3168;51.684;6.954;2023-03-01T00:05:20;-1.00;1.00
6270;DHT22;3168;51.684;6.954;2023-03-01T00:07:46;-1.20;1.00
6270;DHT22;3168;51.684;6.954;2023-03-01T00:10:12;-1.30;1.00
6270;DHT22;3168;51.684;6.954;2023-03-01T00:12:37;-1.40;1.00
6270;DHT22;3168;51.684;6.954;2023-03-01T00:15:03;-1.40;1.00
6270;DHT22;3168;51.684;6.954;2023-03-01T00:17:29;-1.40;1.00
6270;DHT22;3168;51.684;6.954;2023-03-01T00:19:55;-1.50;1.00
6270;DHT22;3168;51.684;6.954;2023-03-01T00:22:21;-1.60;1.00
6270;DHT22;3168;51.684;6.954;2023-03-01T00:24:47;-1.60;1.00
6270;DHT22;3168;51.684;6.954;2023-03-01T00:27:13;-1.50;1.00
6270;DHT22;3168;51.684;6.954;2023-03-01T00:29:38;-1.60;1.00
6270;DHT22;3168;51.684;6.954;2023-03-01T00:32:04;-1.70;1.00
6270;DHT22;3168;51.684;6.954;2023-03-01T00:34:30;-1.80;1.00
6270;DHT22;3168;51.684;6.954;2023-03-01T00:36:56;-1.90;1.00
6270;DHT22;3168;51.684;6.954;2023-03-01T00:39:22;-1.90;1.00
6270;DHT22;3168;51.684;6.954;2023-03-01T00:41:48;-1.90;1.00
6270;DHT22;3168;51.684;6.954;2023-03-01T00:44:14;-1.90;1.00
6270;DHT22;3168;51.684;6.954;2023-03-01T00:46:39;-2.00;1.00
6270;DHT22;3168;51.684;6.954;2023-03-01T00:49:05;-2.00;1.00
6270;DHT22;3168;51.684;6.954;2023-03-01T00:51:31;-2.10;1.00
6270;DHT22;3168;51.684;6.954;2023-03-01T00:53:58;-2.20;1.00
6270;DHT22;3168;51.684;6.954;2023-03-01T00:56:23;-2.20;1.00
6270;DHT22;3168;51.684;6.954;2023-03-01T00:58:49;-2.30;1.00
6270;DHT22;3168;51.684;6.954;2023-03-01T01:01:17;-2.40;1.00
6270;DHT22;3168;51.684;6.954;2023-03-01T01:03:46;-2.40;1.00
6270;DHT22;3168;51.684;6.954;2023-03-01T01:06:13;-2.40;1.00
6270;DHT22;3168;51.684;6.954;2023-03-01T01:08:38;-2.40;1.00
6270;DHT22;3168;51.684;6.954;2023-03-01T01:11:04;-2.30;1.00
6270;DHT22;3168;51.684;6.954;2023-03-01T01:13:30;-2.20;1.00
6270;DHT22;3168;51.684;6.954;2023-03-01T01:15:59;-2.10;1.00
6270;DHT22;3168;51.684;6.954;2023-03-01T01:18:21;-2.10;1.00
6270;DHT22;3168;51.684;6.954;2023-03-01T01:20:47;-2.00;1.00
6270;DHT22;3168;51.684;6.954;2023-03-01T01:23:13;-2.00;1.00
6270;DHT22;3168;51.684;6.954;2023-03-01T01:25:38;-2.10;1.00
6270;DHT22;3168;51.684;6.954;2023-03-01T01:28:04;-2.10;1.00
6270;DHT22;3168;51.684;6.954;2023-03-01T01:30:30;-2.20;1.00
6270;DHT22;3168;51.684;6.954;2023-03-01T01:32:56;-2.30;1.00
6270;DHT22;3168;51.684;6.954;2023-03-01T01:35:22;-2.40;1.00
6270;DHT22;3168;51.684;6.954;2023-03-01T01:37:47;-2.40;1.00
6270;DHT22;3168;51.684;6.954;2023-03-01T01:40:13;-2.40;1.00
6270;DHT22;3168;51.684;6.954;2023-03-01T01:42:39;-2.40;1.00
6270;DHT22;3168;51.684;6.954;2023-03-01T01:45:32;-2.60;1.00
6270;DHT22;3168;51.684;6.954;2023-03-01T01:47:57;-2.60;1.00
6270;DHT22;3168;51.684;6.954;2023-03-01T01:50:21;-2.50;1.00
6270;DHT22;3168;51.684;6.954;2023-03-01T01:52:48;-2.50;1.00
6270;DHT22;3168;51.684;6.954;2023-03-01T01:55:15;-2.50;1.00
6270;DHT22;3168;51.684;6.954;2023-03-01T01:57:43;-2.50;1.00
6270;DHT22;3168;51.684;6.954;2023-03-01T02:00:12;-2.50;1.00
6270;DHT22;3168;51.684;6.954;2023-03-01T02:02:37;-2.50;1.00
6270;DHT22;3168;51.684;6.954;2023-03-01T02:05:12;-2.40;1.00
6270;DHT22;3168;51.684;6.954;2023-03-01T02:07:39;-2.50;1.00
6270;DHT22;3168;51.684;6.954;2023-03-01T02:10:05;-2.60;1.00
6270;DHT22;3168;51.684;6.954;2023-03-01T02:12:31;-2.70;1.00
6270;DHT22;3168;51.684;6.954;2023-03-01T02:14:57;-2.70;1.00
6270;DHT22;3168;51.684;6.954;2023-03-01T02:17:23;-2.70;1.00
6270;DHT22;3168;51.684;6.954;2023-03-01T02:22:24;-2.60;1.00
6270;DHT22;3168;51.684;6.954;2023-03-01T02:24:54;-2.60;1.00
6270;DHT22;3168;51.684;6.954;2023-03-01T02:27:16;-2.60;1.00
6270;DHT22;3168;51.684;6.954;2023-03-01T02:29:41;-2.60;1.00
6270;DHT22;3168;51.684;6.954;2023-03-01T02:32:07;-2.60;1.00
6270;DHT22;3168;51.684;6.954;2023-03-01T02:34:33;-2.60;1.00
6270;DHT22;3168;51.684;6.954;2023-03-01T02:37:01;-2.50;1.00
6270;DHT22;3168;51.684;6.954;2023-03-01T02:39:28;-2.60;1.00
6270;DHT22;3168;51.684;6.954;2023-03-01T02:41:52;-2.70;1.00
6270;DHT22;3168;51.684;6.954;2023-03-01T02:44:18;-2.70;1.00
6270;DHT22;3168;51.684;6.954;2023-03-01T02:46:44;-2.70;1.00
6270;DHT22;3168;51.684;6.954;2023-03-01T02:49:20;-2.80;1.00
6270;DHT22;3168;51.684;6.954;2023-03-01T02:52:01;-2.80;1.00
6270;DHT22;3168;51.684;6.954;2023-03-01T02:54:31;-2.80;1.00
6270;DHT22;3168;51.684;6.954;2023-03-01T02:56:55;-2.80;1.00
6270;DHT22;3168;51.684;6.954;2023-03-01T02:59:22;-2.80;1.00
6270;DHT22;3168;51.684;6.954;2023-03-01T03:01:47;-2.90;1.00
6270;DHT22;3168;51.684;6.954;2023-03-01T03:04:14;-2.80;1.00
6270;DHT22;3168;51.684;6.954;2023-03-01T03:06:39;-2.70;1.00
6270;DHT22;3168;51.684;6.954;2023-03-01T03:09:04;-2.80;1.00
6270;DHT22;3168;51.684;6.954;2023-03-01T03:11:30;-2.70;1.00
6270;DHT22;3168;51.684;6.954;2023-03-01T03:13:56;-2.70;1.00
6270;DHT22;3168;51.684;6.954;2023-03-01T03:16:22;-2.80;1.00
6270;DHT22;3168;51.684;6.954;2023-03-01T03:18:48;-2.80;1.00
6270;DHT22;3168;51.684;6.954;2023-03-01T03:21:14;-2.80;1.00
6270;DHT22;3168;51.684;6.954;2023-03-01T03:23:39;-2.90;1.00
6270;DHT22;3168;51.684;6.954;2023-03-01T03:26:05;-2.90;1.00
6270;DHT22;3168;51.684;6.954;2023-03-01T03:28:32;-2.90;1.00
6270;DHT22;3168;51.684;6.954;2023-03-01T03:30:57;-2.90;1.00
6270;DHT22;3168;51.684;6.954;2023-03-01T03:33:23;-2.90;1.00
6270;DHT22;3168;51.684;6.954;2023-03-01T03:35:49;-3.00;1.00
6270;DHT22;3168;51.684;6.954;2023-03-01T03:38:15;-3.00;1.00
6270;DHT22;3168;51.684;6.954;2023-03-01T03:40:41;-3.00;1.00
6270;DHT22;3168;51.684;6.954;2023-03-01T03:43:08;-3.00;1.00
6270;DHT22;3168;51.684;6.954;2023-03-01T03:45:32;-3.00;1.00
6270;DHT22;3168;51.684;6.954;2023-03-01T03:47:59;-3.00;1.00
6270;DHT22;3168;51.684;6.954;2023-03-01T03:50:24;-2.90;1.00
6270;DHT22;3168;51.684;6.954;2023-03-01T03:52:49;-3.00;1.00
6270;DHT22;3168;51.684;6.954;2023-03-01T03:55:15;-3.00;1.00
6270;DHT22;3168;51.684;6.954;2023-03-01T03:57:41;-3.00;1.00
6270;DHT22;3168;51.684;6.954;2023-03-01T04:00:10;-3.00;1.00
6270;DHT22;3168;51.684;6.954;2023-03-01T04:02:37;-3.00;1.00
6270;DHT22;3168;51.684;6.954;2023-03-01T04:05:03;-3.00;1.00
6270;DHT22;3168;51.684;6.954;2023-03-01T04:07:29;-3.00;1.00
6270;DHT22;3168;51.684;6.954;2023-03-01T04:09:55;-2.90;1.00
6270;DHT22;3168;51.684;6.954;2023-03-01T04:12:20;-2.90;1.00
6270;DHT22;3168;51.684;6.954;2023-03-01T04:14:46;-2.80;1.00
6270;DHT22;3168;51.684;6.954;2023-03-01T04:17:12;-2.80;1.00
6270;DHT22;3168;51.684;6.954;2023-03-01T04:19:38;-2.80;1.00
6270;DHT22;3168;51.684;6.954;2023-03-01T04:22:04;-2.80;1.00
6270;DHT22;3168;51.684;6.954;2023-03-01T04:24:29;-2.70;1.00
6270;DHT22;3168;51.684;6.954;2023-03-01T04:26:55;-2.70;1.00
6270;DHT22;3168;51.684;6.954;2023-03-01T04:29:21;-2.60;1.00
6270;DHT22;3168;51.684;6.954;2023-03-01T04:31:47;-2.60;1.00
6270;DHT22;3168;51.684;6.954;2023-03-01T04:34:13;-2.50;1.00
6270;DHT22;3168;51.684;6.954;2023-03-01T04:36:39;-2.50;1.00
6270;DHT22;3168;51.684;6.954;2023-03-01T04:39:04;-2.50;1.00
6270;DHT22;3168;51.684;6.954;2023-03-01T04:41:30;-2.50;1.00
6270;DHT22;3168;51.684;6.954;2023-03-01T04:43:56;-2.50;1.00
6270;DHT22;3168;51.684;6.954;2023-03-01T04:46:22;-2.60;1.00
6270;DHT22;3168;51.684;6.954;2023-03-01T04:48:48;-2.60;1.00
6270;DHT22;3168;51.684;6.954;2023-03-01T04:51:13;-2.70;1.00
6270;DHT22;3168;51.684;6.954;2023-03-01T04:53:40;-2.80;1.00
6270;DHT22;3168;51.684;6.954;2023-03-01T04:56:06;-2.90;1.00
6270;DHT22;3168;51.684;6.954;2023-03-01T04:58:31;-3.00;1.00
6270;DHT22;3168;51.684;6.954;2023-03-01T05:00:57;-3.00;1.00
6270;DHT22;3168;51.684;6.954;2023-03-01T05:03:23;-3.10;1.00
6270;DHT22;3168;51.684;6.954;2023-03-01T05:05:49;-3.20;1.00
6270;DHT22;3168;51.684;6.954;2023-03-01T05:08:15;-3.20;1.00
6270;DHT22;3168;51.684;6.954;2023-03-01T05:10:45;-3.30;1.00
6270;DHT22;3168;51.684;6.954;2023-03-01T05:13:10;-3.30;1.00
6270;DHT22;3168;51.684;6.954;2023-03-01T05:15:36;-3.40;1.00
6270;DHT22;3168;51.684;6.954;2023-03-01T05:18:02;-3.40;1.00
6270;DHT22;3168;51.684;6.954;2023-03-01T05:20:28;-3.40;1.00
6270;DHT22;3168;51.684;6.954;2023-03-01T05:22:56;-3.50;1.00
6270;DHT22;3168;51.684;6.954;2023-03-01T05:25:21;-3.50;1.00
6270;DHT22;3168;51.684;6.954;2023-03-01T05:27:46;-3.60;1.00
6270;DHT22;3168;51.684;6.954;2023-03-01T05:30:13;-3.60;1.00
6270;DHT22;3168;51.684;6.954;2023-03-01T05:32:44;-3.60;1.00
6270;DHT22;3168;51.684;6.954;2023-03-01T05:35:09;-3.70;1.00
6270;DHT22;3168;51.684;6.954;2023-03-01T05:37:34;-3.70;1.00
6270;DHT22;3168;51.684;6.954;2023-03-01T05:40:00;-3.80;1.00
6270;DHT22;3168;51.684;6.954;2023-03-01T05:42:26;-3.80;1.00
6270;DHT22;3168;51.684;6.954;2023-03-01T05:44:51;-3.80;1.00
6270;DHT22;3168;51.684;6.954;2023-03-01T05:47:18;-3.90;1.00
6270;DHT22;3168;51.684;6.954;2023-03-01T05:49:43;-3.90;1.00
6270;DHT22;3168;51.684;6.954;2023-03-01T05:52:09;-3.90;1.00
6270;DHT22;3168;51.684;6.954;2023-03-01T05:54:35;-4.00;1.00
6270;DHT22;3168;51.684;6.954;2023-03-01T05:57:01;-3.90;1.00
6270;DHT22;3168;51.684;6.954;2023-03-01T05:59:26;-3.90;1.00
6270;DHT22;3168;51.684;6.954;2023-03-01T06:01:52;-3.80;1.00
6270;DHT22;3168;51.684;6.954;2023-03-01T06:04:18;-3.80;1.00
6270;DHT22;3168;51.684;6.954;2023-03-01T06:06:44;-3.70;1.00
6270;DHT22;3168;51.684;6.954;2023-03-01T06:09:09;-3.70;1.00
6270;DHT22;3168;51.684;6.954;2023-03-01T06:11:35;-3.70;1.00
6270;DHT22;3168;51.684;6.954;2023-03-01T06:14:01;-3.70;1.00
6270;DHT22;3168;51.684;6.954;2023-03-01T06:16:27;-3.80;1.00
6270;DHT22;3168;51.684;6.954;2023-03-01T06:18:53;-3.80;1.00
6270;DHT22;3168;51.684;6.954;2023-03-01T06:21:18;-3.90;1.00
6270;DHT22;3168;51.684;6.954;2023-03-01T06:23:44;-3.90;1.00
6270;DHT22;3168;51.684;6.954;2023-03-01T06:26:10;-3.90;1.00
6270;DHT22;3168;51.684;6.954;2023-03-01T06:28:36;-3.90;1.00
6270;DHT22;3168;51.684;6.954;2023-03-01T06:31:02;-3.90;1.00
6270;DHT22;3168;51.684;6.954;2023-03-01T06:33:28;-3.90;1.00
6270;DHT22;3168;51.684;6.954;2023-03-01T06:35:54;-3.90;1.00
6270;DHT22;3168;51.684;6.954;2023-03-01T06:38:19;-3.90;1.00
6270;DHT22;3168;51.684;6.954;2023-03-01T06:40:50;-3.90;1.00
6270;DHT22;3168;51.684;6.954;2023-03-01T06:43:11;-4.00;1.00
6270;DHT22;3168;51.684;6.954;2023-03-01T06:45:37;-3.90;1.00
6270;DHT22;3168;51.684;6.954;2023-03-01T06:48:04;-3.90;1.00
6270;DHT22;3168;51.684;6.954;2023-03-01T06:50:29;-3.80;1.00
6270;DHT22;3168;51.684;6.954;2023-03-01T06:52:55;-3.80;1.00
6270;DHT22;3168;51.684;6.954;2023-03-01T06:55:21;-3.70;1.00
6270;DHT22;3168;51.684;6.954;2023-03-01T06:57:47;-3.70;1.00
6270;DHT22;3168;51.684;6.954;2023-03-01T07:00:13;-3.60;1.00
6270;DHT22;3168;51.684;6.954;2023-03-01T07:02:39;-3.60;1.00
6270;DHT22;3168;51.684;6.954;2023-03-01T07:05:05;-3.60;1.00
6270;DHT22;3168;51.684;6.954;2023-03-01T07:07:31;-3.50;1.00
6270;DHT22;3168;51.684;6.954;2023-03-01T07:09:57;-3.40;1.00
6270;DHT22;3168;51.684;6.954;2023-03-01T07:12:23;-3.30;1.00
6270;DHT22;3168;51.684;6.954;2023-03-01T07:14:49;-3.20;1.00
6270;DHT22;3168;51.684;6.954;2023-03-01T07:17:15;-3.00;1.00
6270;DHT22;3168;51.684;6.954;2023-03-01T07:19:40;-2.90;1.00
6270;DHT22;3168;51.684;6.954;2023-03-01T07:22:06;-2.70;1.00
6270;DHT22;3168;51.684;6.954;2023-03-01T07:24:32;-2.60;1.00
6270;DHT22;3168;51.684;6.954;2023-03-01T07:26:58;-2.50;1.00
6270;DHT22;3168;51.684;6.954;2023-03-01T07:29:24;-2.40;1.00
6270;DHT22;3168;51.684;6.954;2023-03-01T07:31:50;-2.20;1.00
6270;DHT22;3168;51.684;6.954;2023-03-01T07:34:15;-2.00;1.00
6270;DHT22;3168;51.684;6.954;2023-03-01T07:36:41;-1.90;1.00
6270;DHT22;3168;51.684;6.954;2023-03-01T07:39:07;-1.80;1.00
6270;DHT22;3168;51.684;6.954;2023-03-01T07:41:33;-1.70;1.00
6270;DHT22;3168;51.684;6.954;2023-03-01T07:43:59;-1.60;1.00
6270;DHT22;3168;51.684;6.954;2023-03-01T07:46:26;-1.50;1.00
6270;DHT22;3168;51.684;6.954;2023-03-01T07:48:52;-1.40;1.00
6270;DHT22;3168;51.684;6.954;2023-03-01T07:51:17;-1.30;1.00
6270;DHT22;3168;51.684;6.954;2023-03-01T07:53:45;-1.20;1.00
6270;DHT22;3168;51.684;6.954;2023-03-01T07:56:11;-1.10;1.00
6270;DHT22;3168;51.684;6.954;2023-03-01T07:58:37;-1.00;1.00
6270;DHT22;3168;51.684;6.954;2023-03-01T08:01:02;-0.90;1.00
6270;DHT22;3168;51.684;6.954;2023-03-01T08:03:28;-0.80;1.00
6270;DHT22;3168;51.684;6.954;2023-03-01T08:05:53;-0.70;1.00
6270;DHT22;3168;51.684;6.954;2023-03-01T08:08:19;-0.60;1.00
6270;DHT22;3168;51.684;6.954;2023-03-01T08:10:45;-0.50;1.00
6270;DHT22;3168;51.684;6.954;2023-03-01T08:13:11;-0.40;1.00
6270;DHT22;3168;51.684;6.954;2023-03-01T08:15:37;-0.30;1.00
6270;DHT22;3168;51.684;6.954;2023-03-01T08:18:03;-0.20;1.00
6270;DHT22;3168;51.684;6.954;2023-03-01T08:20:28;-0.20;1.00
6270;DHT22;3168;51.684;6.954;2023-03-01T08:22:54;-0.10;1.00
6270;DHT22;3168;51.684;6.954;2023-03-01T08:25:21;0.00;1.00
6270;DHT22;3168;51.684;6.954;2023-03-01T08:27:47;0.10;1.00
6270;DHT22;3168;51.684;6.954;2023-03-01T08:30:13;0.20;1.00
6270;DHT22;3168;51.684;6.954;2023-03-01T08:32:39;0.30;1.00
6270;DHT22;3168;51.684;6.954;2023-03-01T08:35:05;0.30;1.00
6270;DHT22;3168;51.684;6.954;2023-03-01T08:37:31;0.40;1.00
6270;DHT22;3168;51.684;6.954;2023-03-01T08:39:57;0.50;1.00
6270;DHT22;3168;51.684;6.954;2023-03-01T08:42:23;0.50;1.00
6270;DHT22;3168;51.684;6.954;2023-03-01T08:44:49;0.60;1.00
6270;DHT22;3168;51.684;6.954;2023-03-01T08:47:15;0.70;1.00
6270;DHT22;3168;51.684;6.954;2023-03-01T08:49:40;0.80;1.00
6270;DHT22;3168;51.684;6.954;2023-03-01T08:52:06;0.80;1.00
6270;DHT22;3168;51.684;6.954;2023-03-01T08:54:32;1.00;1.00
6270;DHT22;3168;51.684;6.954;2023-03-01T08:56:58;1.10;1.00
6270;DHT22;3168;51.684;6.954;2023-03-01T08:59:24;1.10;1.00
6270;DHT22;3168;51.684;6.954;2023-03-01T09:01:50;1.20;1.00
6270;DHT22;3168;51.684;6.954;2023-03-01T09:04:15;1.30;1.00
6270;DHT22;3168;51.684;6.954;2023-03-01T09:06:41;1.30;1.00
6270;DHT22;3168;51.684;6.954;2023-03-01T09:09:10;1.40;1.00
6270;DHT22;3168;51.684;6.954;2023-03-01T09:11:33;1.50;1.00
6270;DHT22;3168;51.684;6.954;2023-03-01T09:13:59;1.60;1.00
6270;DHT22;3168;51.684;6.954;2023-03-01T09:16:25;1.80;1.00
6270;DHT22;3168;51.684;6.954;2023-03-01T09:18:51;1.80;1.00
6270;DHT22;3168;51.684;6.954;2023-03-01T09:21:17;1.90;1.00
6270;DHT22;3168;51.684;6.954;2023-03-01T09:23:43;2.10;1.00
6270;DHT22;3168;51.684;6.954;2023-03-01T09:26:09;2.10;1.00
6270;DHT22;3168;51.684;6.954;2023-03-01T09:28:34;2.10;1.00
6270;DHT22;3168;51.684;6.954;2023-03-01T09:31:00;2.20;1.00
6270;DHT22;3168;51.684;6.954;2023-03-01T09:33:26;2.40;1.00
6270;DHT22;3168;51.684;6.954;2023-03-01T09:35:58;2.50;1.00
6270;DHT22;3168;51.684;6.954;2023-03-01T09:38:23;2.50;1.00
6270;DHT22;3168;51.684;6.954;2023-03-01T09:40:49;2.60;1.00
6270;DHT22;3168;51.684;6.954;2023-03-01T09:46:05;2.70;1.00
6270;DHT22;3168;51.684;6.954;2023-03-01T09:48:27;2.70;1.00
6270;DHT22;3168;51.684;6.954;2023-03-01T09:50:53;2.60;1.00
6270;DHT22;3168;51.684;6.954;2023-03-01T09:53:20;2.80;1.00
6270;DHT22;3168;51.684;6.954;2023-03-01T09:56:05;2.90;1.00
6270;DHT22;3168;51.684;6.954;2023-03-01T09:58:36;2.90;1.00
6270;DHT22;3168;51.684;6.954;2023-03-01T10:01:02;3.00;1.00
6270;DHT22;3168;51.684;6.954;2023-03-01T10:03:36;2.90;1.00
6270;DHT22;3168;51.684;6.954;2023-03-01T10:06:20;3.10;1.00
6270;DHT22;3168;51.684;6.954;2023-03-01T10:08:50;3.20;1.00
6270;DHT22;3168;51.684;6.954;2023-03-01T10:11:22;3.20;1.00
6270;DHT22;3168;51.684;6.954;2023-03-01T10:13:51;3.30;1.00
6270;DHT22;3168;51.684;6.954;2023-03-01T10:16:16;3.40;1.00
6270;DHT22;3168;51.684;6.954;2023-03-01T10:18:40;3.50;1.00
6270;DHT22;3168;51.684;6.954;2023-03-01T10:21:15;3.50;1.00
6270;DHT22;3168;51.684;6.954;2023-03-01T10:23:39;3.60;1.00
6270;DHT22;3168;51.684;6.954;2023-03-01T10:26:34;3.70;1.00
6270;DHT22;3168;51.684;6.954;2023-03-01T10:29:05;3.80;1.00
6270;DHT22;3168;51.684;6.954;2023-03-01T10:31:36;3.80;1.00
6270;DHT22;3168;51.684;6.954;2023-03-01T10:33:58;3.80;1.00
6270;DHT22;3168;51.684;6.954;2023-03-01T10:36:24;3.80;1.00
6270;DHT22;3168;51.684;6.954;2023-03-01T10:38:53;3.90;1.00
6270;DHT22;3168;51.684;6.954;2023-03-01T10:41:17;3.90;1.00
6270;DHT22;3168;51.684;6.954;2023-03-01T10:43:46;3.90;1.00
6270;DHT22;3168;51.684;6.954;2023-03-01T10:46:28;4.00;1.00
6270;DHT22;3168;51.684;6.954;2023-03-01T10:49:10;4.10;1.00
6270;DHT22;3168;51.684;6.954;2023-03-01T10:51:36;4.10;1.00
6270;DHT22;3168;51.684;6.954;2023-03-01T10:54:01;4.10;1.00
6270;DHT22;3168;51.684;6.954;2023-03-01T10:56:27;4.10;1.00
6270;DHT22;3168;51.684;6.954;2023-03-01T10:59:00;4.40;1.00
6270;DHT22;3168;51.684;6.954;2023-03-01T11:01:25;4.40;1.00
6270;DHT22;3168;51.684;6.954;2023-03-01T11:04:12;4.40;1.00
6270;DHT22;3168;51.684;6.954;2023-03-01T11:06:36;4.40;1.00
6270;DHT22;3168;51.684;6.954;2023-03-01T11:09:15;4.50;1.00
6270;DHT22;3168;51.684;6.954;2023-03-01T11:11:39;4.40;1.00
6270;DHT22;3168;51.684;6.954;2023-03-01T11:16:42;4.50;1.00
6270;DHT22;3168;51.684;6.954;2023-03-01T11:19:14;4.50;1.00
6270;DHT22;3168;51.684;6.954;2023-03-01T11:22:03;4.60;1.00
6270;DHT22;3168;51.684;6.954;2023-03-01T11:24:33;4.60;1.00
6270;DHT22;3168;51.684;6.954;2023-03-01T11:26:57;4.70;1.00
6270;DHT22;3168;51.684;6.954;2023-03-01T11:29:39;4.60;1.00
6270;DHT22;3168;51.684;6.954;2023-03-01T11:32:06;4.70;1.00
6270;DHT22;3168;51.684;6.954;2023-03-01T11:34:38;4.70;1.00
6270;DHT22;3168;51.684;6.954;2023-03-01T11:37:02;4.70;1.00
6270;DHT22;3168;51.684;6.954;2023-03-01T11:39:36;4.80;1.00
6270;DHT22;3168;51.684;6.954;2023-03-01T11:42:06;4.80;1.00
6270;DHT22;3168;51.684;6.954;2023-03-01T11:44:31;4.90;1.00
6270;DHT22;3168;51.684;6.954;2023-03-01T11:47:05;4.90;1.00
6270;DHT22;3168;51.684;6.954;2023-03-01T11:52:18;5.10;1.00
6270;DHT22;3168;51.684;6.954;2023-03-01T11:57:49;5.10;1.00
6270;DHT22;3168;51.684;6.954;2023-03-01T12:03:19;5.30;1.00
6270;DHT22;3168;51.684;6.954;2023-03-01T12:08:27;5.00;1.00
6270;DHT22;3168;51.684;6.954;2023-03-01T12:11:17;5.20;1.00
6270;DHT22;3168;51.684;6.954;2023-03-01T12:13:59;5.20;1.00
6270;DHT22;3168;51.684;6.954;2023-03-01T12:22:02;5.40;1.00
6270;DHT22;3168;51.684;6.954;2023-03-01T12:25:33;5.30;1.00
6270;DHT22;3168;51.684;6.954;2023-03-01T12:27:17;5.30;1.00
6270;DHT22;3168;51.684;6.954;2023-03-01T12:29:42;5.40;1.00
6270;DHT22;3168;51.684;6.954;2023-03-01T12:32:28;5.40;1.00
6270;DHT22;3168;51.684;6.954;2023-03-01T12:35:11;5.30;1.00
6270;DHT22;3168;51.684;6.954;2023-03-01T12:37:47;5.40;1.00
6270;DHT22;3168;51.684;6.954;2023-03-01T12:40:22;5.40;1.00
6270;DHT22;3168;51.684;6.954;2023-03-01T12:42:58;5.60;1.00
6270;DHT22;3168;51.684;6.954;2023-03-01T12:45:48;5.60;1.00
6270;DHT22;3168;51.684;6.954;2023-03-01T12:48:21;5.60;1.00
6270;DHT22;3168;51.684;6.954;2023-03-01T12:50:47;5.70;1.00
6270;DHT22;3168;51.684;6.954;2023-03-01T12:53:28;5.70;1.00
6270;DHT22;3168;51.684;6.954;2023-03-01T12:55:54;5.90;1.00
6270;DHT22;3168;51.684;6.954;2023-03-01T12:58:24;5.70;1.00
6270;DHT22;3168;51.684;6.954;2023-03-01T13:00:59;5.90;1.00
6270;DHT22;3168;51.684;6.954;2023-03-01T13:03:31;5.80;1.00
6270;DHT22;3168;51.684;6.954;2023-03-01T13:06:13;5.80;1.00
6270;DHT22;3168;51.684;6.954;2023-03-01T13:08:41;5.70;1.00
6270;DHT22;3168;51.684;6.954;2023-03-01T13:11:06;5.80;1.00
6270;DHT22;3168;51.684;6.954;2023-03-01T13:13:31;5.90;1.00
6270;DHT22;3168;51.684;6.954;2023-03-01T13:15:57;6.00;1.00
6270;DHT22;3168;51.684;6.954;2023-03-01T13:18:30;6.00;1.00
6270;DHT22;3168;51.684;6.954;2023-03-01T13:20:55;6.10;1.00
6270;DHT22;3168;51.684;6.954;2023-03-01T13:23:26;6.20;1.00
6270;DHT22;3168;51.684;6.954;2023-03-01T13:26:08;6.20;1.00
6270;DHT22;3168;51.684;6.954;2023-03-01T13:28:48;6.30;1.00
6270;DHT22;3168;51.684;6.954;2023-03-01T13:34:39;6.20;1.00
6270;DHT22;3168;51.684;6.954;2023-03-01T13:36:46;6.30;1.00
6270;DHT22;3168;51.684;6.954;2023-03-01T13:42:01;6.30;1.00
6270;DHT22;3168;51.684;6.954;2023-03-01T13:44:30;6.30;1.00
6270;DHT22;3168;51.684;6.954;2023-03-01T13:46:57;6.30;1.00
6270;DHT22;3168;51.684;6.954;2023-03-01T13:49:23;6.30;1.00
6270;DHT22;3168;51.684;6.954;2023-03-01T13:51:49;6.30;1.00
6270;DHT22;3168;51.684;6.954;2023-03-01T13:54:15;6.50;1.00
6270;DHT22;3168;51.684;6.954;2023-03-01T13:56:40;6.50;1.00
6270;DHT22;3168;51.684;6.954;2023-03-01T14:01:38;6.50;1.00
6270;DHT22;3168;51.684;6.954;2023-03-01T14:04:18;6.40;1.00
6270;DHT22;3168;51.684;6.954;2023-03-01T14:06:31;6.40;1.00
6270;DHT22;3168;51.684;6.954;2023-03-01T14:09:03;6.40;1.00
6270;DHT22;3168;51.684;6.954;2023-03-01T14:12:09;6.40;1.00
6270;DHT22;3168;51.684;6.954;2023-03-01T14:17:07;6.40;1.00
6270;DHT22;3168;51.684;6.954;2023-03-01T14:19:30;6.40;1.00
6270;DHT22;3168;51.684;6.954;2023-03-01T14:25:03;6.50;1.00
6270;DHT22;3168;51.684;6.954;2023-03-01T14:27:33;6.50;1.00
6270;DHT22;3168;51.684;6.954;2023-03-01T14:30:00;6.60;1.00
6270;DHT22;3168;51.684;6.954;2023-03-01T14:32:28;6.70;1.00
6270;DHT22;3168;51.684;6.954;2023-03-01T14:34:52;6.70;1.00
6270;DHT22;3168;51.684;6.954;2023-03-01T14:37:24;6.50;1.00
6270;DHT22;3168;51.684;6.954;2023-03-01T14:39:48;6.50;1.00
6270;DHT22;3168;51.684;6.954;2023-03-01T14:42:14;6.50;1.00
6270;DHT22;3168;51.684;6.954;2023-03-01T14:44:41;6.60;1.00
6270;DHT22;3168;51.684;6.954;2023-03-01T14:47:06;6.60;1.00
6270;DHT22;3168;51.684;6.954;2023-03-01T14:49:37;6.70;1.00
6270;DHT22;3168;51.684;6.954;2023-03-01T14:52:06;6.80;1.00
6270;DHT22;3168;51.684;6.954;2023-03-01T14:54:49;6.70;1.00
6270;DHT22;3168;51.684;6.954;2023-03-01T14:57:16;6.80;1.00
6270;DHT22;3168;51.684;6.954;2023-03-01T14:59:41;6.90;1.00
6270;DHT22;3168;51.684;6.954;2023-03-01T15:02:08;6.90;1.00
6270;DHT22;3168;51.684;6.954;2023-03-01T15:04:33;7.20;1.00
6270;DHT22;3168;51.684;6.954;2023-03-01T15:06:59;7.00;1.00
6270;DHT22;3168;51.684;6.954;2023-03-01T15:12:40;6.90;1.00
6270;DHT22;3168;51.684;6.954;2023-03-01T15:17:37;7.70;1.00
6270;DHT22;3168;51.684;6.954;2023-03-01T15:20:05;7.60;1.00
6270;DHT22;3168;51.684;6.954;2023-03-01T15:22:31;7.90;1.00
6270;DHT22;3168;51.684;6.954;2023-03-01T15:24:57;8.00;1.00
6270;DHT22;3168;51.684;6.954;2023-03-01T15:27:23;7.90;1.00
6270;DHT22;3168;51.684;6.954;2023-03-01T15:29:50;8.10;1.00
6270;DHT22;3168;51.684;6.954;2023-03-01T15:32:30;8.00;1.00
6270;DHT22;3168;51.684;6.954;2023-03-01T15:34:57;7.70;1.00
6270;DHT22;3168;51.684;6.954;2023-03-01T15:40:00;8.30;1.00
6270;DHT22;3168;51.684;6.954;2023-03-01T15:42:42;8.30;1.00
6270;DHT22;3168;51.684;6.954;2023-03-01T15:45:19;7.80;1.00
6270;DHT22;3168;51.684;6.954;2023-03-01T15:47:38;7.70;1.00
6270;DHT22;3168;51.684;6.954;2023-03-01T15:50:03;7.80;1.00
6270;DHT22;3168;51.684;6.954;2023-03-01T15:52:35;8.40;1.00
6270;DHT22;3168;51.684;6.954;2023-03-01T15:55:00;8.40;1.00
6270;DHT22;3168;51.684;6.954;2023-03-01T15:57:25;8.20;1.00
6270;DHT22;3168;51.684;6.954;2023-03-01T15:59:51;8.10;1.00
6270;DHT22;3168;51.684;6.954;2023-03-01T16:02:17;7.80;1.00
6270;DHT22;3168;51.684;6.954;2023-03-01T16:04:43;7.50;1.00
6270;DHT22;3168;51.684;6.954;2023-03-01T16:07:08;7.20;1.00
6270;DHT22;3168;51.684;6.954;2023-03-01T16:09:34;7.20;1.00
6270;DHT22;3168;51.684;6.954;2023-03-01T16:12:00;7.20;1.00
6270;DHT22;3168;51.684;6.954;2023-03-01T16:14:26;7.10;1.00
6270;DHT22;3168;51.684;6.954;2023-03-01T16:16:52;7.00;1.00
6270;DHT22;3168;51.684;6.954;2023-03-01T16:19:17;6.90;1.00
6270;DHT22;3168;51.684;6.954;2023-03-01T16:21:43;6.80;1.00
6270;DHT22;3168;51.684;6.954;2023-03-01T16:24:09;6.80;1.00
6270;DHT22;3168;51.684;6.954;2023-03-01T16:26:36;7.00;1.00
6270;DHT22;3168;51.684;6.954;2023-03-01T16:29:01;7.00;1.00
6270;DHT22;3168;51.684;6.954;2023-03-01T16:31:27;6.80;1.00
6270;DHT22;3168;51.684;6.954;2023-03-01T16:33:53;6.60;1.00
6270;DHT22;3168;51.684;6.954;2023-03-01T16:36:19;6.40;1.00
6270;DHT22;3168;51.684;6.954;2023-03-01T16:38:44;6.30;1.00
6270;DHT22;3168;51.684;6.954;2023-03-01T16:41:11;6.10;1.00
6270;DHT22;3168;51.684;6.954;2023-03-01T16:43:36;5.90;1.00
6270;DHT22;3168;51.684;6.954;2023-03-01T16:46:01;5.70;1.00
6270;DHT22;3168;51.684;6.954;2023-03-01T16:48:27;5.70;1.00
6270;DHT22;3168;51.684;6.954;2023-03-01T16:50:57;5.60;1.00
6270;DHT22;3168;51.684;6.954;2023-03-01T16:53:21;5.50;1.00
6270;DHT22;3168;51.684;6.954;2023-03-01T16:55:52;5.30;1.00
6270;DHT22;3168;51.684;6.954;2023-03-01T16:58:13;5.20;1.00
6270;DHT22;3168;51.684;6.954;2023-03-01T17:00:39;5.30;1.00
6270;DHT22;3168;51.684;6.954;2023-03-01T17:03:04;5.10;1.00
6270;DHT22;3168;51.684;6.954;2023-03-01T17:05:30;5.00;1.00
6270;DHT22;3168;51.684;6.954;2023-03-01T17:07:56;5.00;1.00
6270;DHT22;3168;51.684;6.954;2023-03-01T17:10:22;5.00;1.00
6270;DHT22;3168;51.684;6.954;2023-03-01T17:12:48;4.90;1.00
6270;DHT22;3168;51.684;6.954;2023-03-01T17:15:13;4.90;1.00